createdAt,value
2022-08-30T00:14:36.318Z,23.40
2022-08-30T00:55:04.260Z,22.00
2022-08-30T00:58:27.026Z,22.10
2022-08-30T01:01:06.667Z,22.20
2022-08-30T01:03:50.278Z,22.40
2022-08-30T01:08:46.002Z,22.50
2022-08-30T01:20:30.673Z,22.80
2022-08-30T01:40:31.654Z,21.90
2022-08-30T01:44:12.471Z,21.80
2022-08-30T01:48:06.717Z,21.60
2022-08-30T01:51:23.400Z,21.70
2022-08-30T01:54:04.322Z,21.80
2022-08-30T01:57:14.778Z,21.70
2022-08-30T02:00:45.491Z,21.90
2022-08-30T03:56:48.503Z,21.70
2022-08-30T04:41:12.606Z,21.70
2022-08-30T04:45:47.211Z,21.50
2022-08-30T04:59:29.594Z,21.70
2022-08-30T06:27:34.126Z,21.90
2022-08-30T06:33:56.405Z,21.90
2022-08-30T06:41:13.609Z,22.40
2022-08-30T06:47:10.431Z,22.80
2022-08-30T06:49:38.905Z,22.70
2022-08-30T06:52:09.131Z,22.80
2022-08-30T06:54:40.041Z,22.80
2022-08-30T06:57:08.578Z,22.90
2022-08-30T06:59:39.092Z,22.90
2022-08-30T07:02:08.903Z,23.00
2022-08-30T07:04:38.957Z,23.00
2022-08-30T07:07:08.116Z,23.10
2022-08-30T07:09:43.247Z,23.20
2022-08-30T07:12:12.685Z,23.20
2022-08-30T07:14:43.018Z,23.30
2022-08-30T07:17:25.664Z,23.40
2022-08-30T07:19:54.551Z,23.40
2022-08-30T07:22:23.448Z,23.50
2022-08-30T07:24:52.131Z,23.60
2022-08-30T07:27:24.782Z,23.70
2022-08-30T07:33:08.659Z,23.90
2022-08-30T07:35:47.705Z,23.90
2022-08-30T07:38:37.789Z,23.80
2022-08-30T07:41:19.959Z,23.70
2022-08-30T07:44:12.365Z,23.70
2022-08-30T07:46:50.935Z,23.50
2022-08-30T07:49:24.122Z,23.80
2022-08-30T07:51:56.640Z,23.90
2022-08-30T07:54:35.822Z,24.10
2022-08-30T07:57:09.909Z,24.20
2022-08-30T08:00:09.033Z,24.50
2022-08-30T08:06:44.938Z,24.90
2022-08-30T08:09:59.828Z,25.10
2022-08-30T08:12:55.286Z,25.10
2022-08-30T08:16:10.979Z,25.10
2022-08-30T08:22:22.238Z,25.30
2022-08-30T08:25:27.746Z,25.50
2022-08-30T08:28:51.994Z,25.70
2022-08-30T08:31:53.210Z,25.90
2022-08-30T08:34:54.580Z,26.00
2022-08-30T08:38:08.052Z,26.20
2022-08-30T08:41:29.448Z,26.10
2022-08-30T08:44:54.830Z,26.30
2022-08-30T08:48:03.200Z,26.50
2022-08-30T08:51:25.386Z,26.80
2022-08-30T08:59:22.218Z,26.80
2022-08-30T09:01:58.128Z,27.20
2022-08-30T09:04:35.775Z,27.10
2022-08-30T09:07:20.392Z,27.30
2022-08-30T09:09:56.165Z,27.60
2022-08-30T09:12:49.775Z,27.70
2022-08-30T09:15:39.033Z,27.90
2022-08-30T09:22:46.859Z,28.10
2022-08-30T09:25:52.851Z,28.30
2022-08-30T09:29:33.385Z,28.50
2022-08-30T09:32:42.790Z,28.70
2022-08-30T09:35:57.240Z,28.70
2022-08-30T09:38:46.145Z,28.80
2022-08-30T09:42:02.141Z,28.90
2022-08-30T09:45:14.089Z,29.10
2022-08-30T09:48:45.177Z,29.20
2022-08-30T09:51:45.035Z,29.30
2022-08-30T09:54:40.033Z,29.20
2022-08-30T09:57:58.811Z,29.10
2022-08-30T10:00:56.303Z,29.20
2022-08-30T10:04:15.266Z,29.50
2022-08-30T10:07:44.906Z,29.60
2022-08-30T10:10:58.553Z,29.40
2022-08-30T10:14:21.629Z,29.60
2022-08-30T10:17:26.897Z,29.70
2022-08-30T10:20:36.364Z,29.80
2022-08-30T10:23:43.940Z,29.80
2022-08-30T10:26:50.842Z,30.10
2022-08-30T10:30:16.661Z,30.20
2022-08-30T10:33:25.386Z,30.10
2022-08-30T10:36:10.294Z,30.10
2022-08-30T10:39:16.718Z,30.10
2022-08-30T10:42:29.720Z,30.20
2022-08-30T10:45:39.723Z,30.20
2022-08-30T10:49:09.517Z,30.50
2022-08-30T10:59:46.044Z,30.00
2022-08-30T11:03:32.339Z,30.10
2022-08-30T11:06:40.886Z,30.40
2022-08-30T11:09:51.158Z,30.80
2022-08-30T11:16:04.017Z,31.20
2022-08-30T11:18:36.758Z,31.20
2022-08-30T11:21:28.334Z,31.30
2022-08-30T11:24:36.820Z,31.60
2022-08-30T11:27:32.528Z,31.70
2022-08-30T11:30:39.996Z,31.50
2022-08-30T11:33:32.769Z,31.40
2022-08-30T11:36:01.643Z,31.50
2022-08-30T11:39:09.969Z,31.60
2022-08-30T11:41:47.652Z,31.70
2022-08-30T11:44:45.762Z,31.80
2022-08-30T11:48:16.330Z,31.80
2022-08-30T11:51:19.490Z,31.70
2022-08-30T11:54:19.515Z,31.70
2022-08-30T11:57:13.547Z,31.60
2022-08-30T12:00:17.111Z,31.50
2022-08-30T12:03:03.172Z,31.50
2022-08-30T12:06:14.828Z,31.60
2022-08-30T12:09:08.378Z,31.70
2022-08-30T12:12:44.111Z,31.80
2022-08-30T12:16:48.375Z,32.00
2022-08-30T12:19:27.739Z,32.30
2022-08-30T12:25:21.513Z,32.30
2022-08-30T12:27:50.997Z,32.40
2022-08-30T12:30:28.386Z,32.30
2022-08-30T12:33:14.421Z,32.30
2022-08-30T12:35:45.190Z,32.30
2022-08-30T12:38:27.456Z,32.40
2022-08-30T12:41:00.648Z,32.40
2022-08-30T12:43:39.081Z,32.30
2022-08-30T12:46:16.507Z,32.30
2022-08-30T12:48:46.197Z,32.30
2022-08-30T12:51:37.587Z,32.20
2022-08-30T12:54:25.077Z,32.10
2022-08-30T12:57:25.561Z,32.10
2022-08-30T13:00:02.168Z,32.10
2022-08-30T13:02:46.116Z,32.20
2022-08-30T13:05:40.515Z,32.30
2022-08-30T13:08:22.506Z,32.40
2022-08-30T13:10:57.058Z,32.30
2022-08-30T13:13:34.842Z,32.20
2022-08-30T13:16:40.304Z,32.30
2022-08-30T13:19:33.082Z,32.40
2022-08-30T13:22:05.378Z,32.50
2022-08-30T13:24:59.427Z,32.40
2022-08-30T13:27:30.900Z,32.40
2022-08-30T13:30:14.591Z,32.30
2022-08-30T13:33:12.186Z,32.40
2022-08-30T13:36:11.855Z,32.40
2022-08-30T13:48:17.455Z,32.40
2022-08-30T13:50:56.018Z,32.10
2022-08-30T13:56:21.363Z,32.20
2022-08-30T13:58:50.958Z,32.40
2022-08-30T14:01:23.483Z,32.40
2022-08-30T14:07:20.216Z,32.80
2022-08-30T14:13:04.820Z,32.90
2022-08-30T14:16:26.595Z,33.00
2022-08-30T14:19:05.728Z,33.00
2022-08-30T14:21:35.423Z,33.00
2022-08-30T14:24:23.285Z,32.80
2022-08-30T14:26:55.315Z,32.90
2022-08-30T14:29:30.201Z,33.00
2022-08-30T14:32:34.325Z,33.00
2022-08-30T14:34:57.068Z,32.70
2022-08-30T14:37:30.319Z,32.60
2022-08-30T14:40:03.081Z,32.60
2022-08-30T14:42:31.903Z,32.60
2022-08-30T14:45:00.561Z,32.40
2022-08-30T14:47:29.818Z,32.30
2022-08-30T14:50:01.929Z,32.30
2022-08-30T14:52:31.354Z,32.30
2022-08-30T14:55:08.514Z,32.30
2022-08-30T14:57:38.521Z,32.30
2022-08-30T15:00:09.063Z,32.40
2022-08-30T15:02:37.689Z,32.60
2022-08-30T15:05:11.342Z,32.70
2022-08-30T15:07:39.664Z,32.70
2022-08-30T15:10:09.497Z,32.70
2022-08-30T15:12:37.866Z,32.70
2022-08-30T15:15:07.723Z,32.70
2022-08-30T15:17:37.531Z,32.70
2022-08-30T15:20:10.683Z,32.70
2022-08-30T15:22:39.291Z,32.60
2022-08-30T15:25:10.868Z,32.60
2022-08-30T15:27:39.309Z,32.80
2022-08-30T15:30:10.952Z,32.80
2022-08-30T15:32:39.513Z,32.70
2022-08-30T15:35:13.321Z,32.70
2022-08-30T15:37:41.708Z,32.80
2022-08-30T15:40:11.491Z,32.80
2022-08-30T15:42:39.839Z,32.80
2022-08-30T15:45:12.941Z,32.80
2022-08-30T15:47:41.428Z,32.80
2022-08-30T15:50:12.353Z,32.70
2022-08-30T15:53:05.701Z,32.60
2022-08-30T15:55:36.174Z,32.50
2022-08-30T15:58:04.635Z,32.40
2022-08-30T16:00:45.614Z,32.30
2022-08-30T16:03:20.426Z,32.30
2022-08-30T16:05:50.887Z,32.20
2022-08-30T16:08:22.301Z,32.00
2022-08-30T16:10:54.291Z,32.00
2022-08-30T16:13:29.365Z,32.00
2022-08-30T16:16:55.125Z,32.20
2022-08-30T16:19:58.794Z,32.20
2022-08-30T16:22:31.978Z,32.00
2022-08-30T16:25:06.091Z,32.00
2022-08-30T16:27:49.233Z,31.90
2022-08-30T16:30:21.272Z,31.60
2022-08-30T16:32:56.728Z,31.20
2022-08-30T16:36:12.839Z,31.20
2022-08-30T16:39:26.677Z,31.00
2022-08-30T16:42:06.590Z,30.90
2022-08-30T16:44:40.430Z,31.00
2022-08-30T16:48:00.532Z,30.90
2022-08-30T16:50:38.094Z,31.10
2022-08-30T16:53:10.278Z,30.90
2022-08-30T16:56:18.645Z,30.80
2022-08-30T17:03:03.169Z,30.90
2022-08-30T17:05:48.442Z,31.00
2022-08-30T17:09:40.670Z,31.10
2022-08-30T17:12:09.685Z,31.20
2022-08-30T17:14:38.318Z,31.30
2022-08-30T17:17:11.234Z,31.30
2022-08-30T17:19:43.035Z,31.20
2022-08-30T17:22:21.418Z,31.20
2022-08-30T17:24:50.259Z,31.00
2022-08-30T17:27:21.868Z,31.00
2022-08-30T17:30:11.430Z,31.00
2022-08-30T17:33:48.797Z,31.00
2022-08-30T17:36:21.043Z,31.10
2022-08-30T17:38:57.889Z,31.20
2022-08-30T17:41:54.778Z,31.20
2022-08-30T17:45:31.121Z,31.20
2022-08-30T17:48:36.975Z,31.30
2022-08-30T17:52:00.926Z,31.40
2022-08-30T17:55:02.316Z,31.30
2022-08-30T17:57:39.573Z,31.30
2022-08-30T18:01:04.775Z,31.30
2022-08-30T18:03:40.530Z,31.20
2022-08-30T18:06:21.438Z,31.20
2022-08-30T18:08:57.724Z,31.10
2022-08-30T18:11:58.542Z,31.10
2022-08-30T18:14:39.402Z,31.20
2022-08-30T18:20:49.156Z,31.20
2022-08-30T18:28:41.040Z,30.90
2022-08-30T18:35:53.669Z,30.70
2022-08-30T18:38:42.618Z,30.50
2022-08-30T18:41:14.670Z,30.40
2022-08-30T18:43:45.323Z,30.30
2022-08-30T18:46:38.862Z,30.20
2022-08-30T18:49:39.313Z,30.00
2022-08-30T18:52:11.867Z,29.60
2022-08-30T18:54:42.947Z,29.30
2022-08-30T18:57:14.644Z,29.10
2022-08-30T18:59:47.836Z,29.00
2022-08-30T19:02:17.913Z,29.00
2022-08-30T19:04:59.189Z,28.90
2022-08-30T19:07:37.670Z,28.80
2022-08-30T19:10:08.464Z,28.80
2022-08-30T19:12:44.100Z,28.80
2022-08-30T19:15:27.850Z,28.80
2022-08-30T19:18:17.138Z,28.60
2022-08-30T19:20:51.196Z,28.40
2022-08-30T19:23:27.239Z,28.20
2022-08-30T19:26:04.420Z,28.20
2022-08-30T19:28:42.303Z,28.10
2022-08-30T19:31:30.394Z,28.00
2022-08-30T19:34:15.089Z,27.90
2022-08-30T19:36:46.850Z,27.70
2022-08-30T19:39:16.030Z,27.70
2022-08-30T19:41:53.451Z,27.70
2022-08-30T19:44:24.551Z,27.70
2022-08-30T19:47:31.339Z,27.80
2022-08-30T19:50:33.133Z,28.10
2022-08-30T21:04:40.930Z,26.60
2022-08-30T21:11:51.628Z,27.00
2022-08-30T21:21:30.548Z,27.00
2022-08-30T21:24:10.334Z,26.90
2022-08-30T21:27:46.144Z,26.80
2022-08-30T21:45:50.747Z,26.60
2022-08-30T21:48:52.066Z,26.70
2022-08-30T21:53:29.791Z,26.70
2022-08-30T22:05:00.562Z,26.50
2022-08-30T22:13:12.253Z,26.20
2022-08-30T22:20:10.926Z,26.40
2022-08-30T22:24:32.952Z,26.20
2022-08-30T22:31:58.679Z,26.00
2022-08-30T22:43:21.027Z,26.00
2022-08-30T22:46:33.580Z,26.00
2022-08-30T22:57:36.048Z,25.60
2022-08-30T23:01:01.447Z,25.70
2022-08-30T23:15:40.186Z,25.30
2022-08-30T23:19:15.865Z,25.00
2022-08-30T23:22:15.276Z,24.30
2022-08-30T23:36:10.434Z,21.90
2022-08-30T23:41:59.969Z,21.60
2022-08-30T23:45:02.433Z,21.90
2022-08-30T23:47:50.266Z,22.10
2022-08-30T23:50:41.558Z,22.10
2022-08-30T23:53:33.809Z,22.10
2022-08-30T23:56:20.031Z,22.20
2022-08-30T23:59:05.764Z,22.30
